sensor_id;sensor_type;location;lat;lon;timestamp;pressure;altitude;pressure_sealevel;temperature;humidity
55757;BME280;41676;44.610;44.078;2024-01-30T00:04:50;102428.66;;;-6.65;91.60
55757;BME280;41676;44.610;44.078;2024-01-30T00:09:50;102423.53;;;-6.77;91.61
55757;BME280;41676;44.610;44.078;2024-01-30T00:14:51;102424.44;;;-6.92;91.49
55757;BME280;41676;44.610;44.078;2024-01-30T00:19:52;102416.75;;;-7.04;91.66
55757;BME280;41676;44.610;44.078;2024-01-30T00:24:53;102432.22;;;-6.98;91.81
55757;BME280;41676;44.610;44.078;2024-01-30T00:29:53;102434.81;;;-7.06;91.74
55757;BME280;41676;44.610;44.078;2024-01-30T00:34:54;102437.44;;;-7.17;91.77
55757;BME280;41676;44.610;44.078;2024-01-30T00:39:55;102436.63;;;-7.29;92.06
55757;BME280;41676;44.610;44.078;2024-01-30T00:44:55;102445.22;;;-7.30;92.07
55757;BME280;41676;44.610;44.078;2024-01-30T00:49:56;102440.94;;;-7.44;91.56
55757;BME280;41676;44.610;44.078;2024-01-30T00:54:57;102446.97;;;-7.54;91.77
55757;BME280;41676;44.610;44.078;2024-01-30T00:59:57;102445.25;;;-7.79;92.07
55757;BME280;41676;44.610;44.078;2024-01-30T01:04:58;102446.13;;;-7.81;91.65
55757;BME280;41676;44.610;44.078;2024-01-30T01:09:59;102447.81;;;-7.90;91.90
55757;BME280;41676;44.610;44.078;2024-01-30T01:14:59;102445.25;;;-8.04;92.24
55757;BME280;41676;44.610;44.078;2024-01-30T01:20:00;102421.97;;;-8.29;92.21
55757;BME280;41676;44.610;44.078;2024-01-30T01:25:01;102385.84;;;-8.65;91.71
55757;BME280;41676;44.610;44.078;2024-01-30T01:30:02;102453.75;;;-8.54;91.88
55757;BME280;41676;44.610;44.078;2024-01-30T01:35:06;102425.28;;;-8.91;91.94
55757;BME280;41676;44.610;44.078;2024-01-30T01:40:07;102459.63;;;-8.86;91.72
55757;BME280;41676;44.610;44.078;2024-01-30T01:45:08;102466.44;;;-8.97;91.45
55757;BME280;41676;44.610;44.078;2024-01-30T01:50:09;102399.28;;;-9.34;91.65
55757;BME280;41676;44.610;44.078;2024-01-30T01:55:10;102466.50;;;-8.85;92.08
55757;BME280;41676;44.610;44.078;2024-01-30T02:00:12;102433.72;;;-9.13;92.07
55757;BME280;41676;44.610;44.078;2024-01-30T02:05:14;102455.22;;;-9.08;92.07
55757;BME280;41676;44.610;44.078;2024-01-30T02:10:15;102415.66;;;-9.24;92.39
55757;BME280;41676;44.610;44.078;2024-01-30T02:15:16;102424.31;;;-9.08;93.47
55757;BME280;41676;44.610;44.078;2024-01-30T02:20:17;102470.88;;;-8.68;94.00
55757;BME280;41676;44.610;44.078;2024-01-30T02:25:18;102457.19;;;-8.58;94.13
55757;BME280;41676;44.610;44.078;2024-01-30T02:30:18;102407.28;;;-8.77;94.46
55757;BME280;41676;44.610;44.078;2024-01-30T02:35:19;102450.31;;;-8.47;94.88
55757;BME280;41676;44.610;44.078;2024-01-30T02:40:20;102409.84;;;-8.82;94.53
55757;BME280;41676;44.610;44.078;2024-01-30T02:45:20;102449.41;;;-8.69;94.32
55757;BME280;41676;44.610;44.078;2024-01-30T02:50:21;102466.50;;;-8.80;94.21
55757;BME280;41676;44.610;44.078;2024-01-30T02:55:22;102433.72;;;-9.16;94.36
55757;BME280;41676;44.610;44.078;2024-01-30T03:00:23;102475.75;;;-9.21;94.20
55757;BME280;41676;44.610;44.078;2024-01-30T03:05:24;102467.78;;;-9.53;94.24
55757;BME280;41676;44.610;44.078;2024-01-30T03:10:25;102400.28;;;-10.29;94.14
55757;BME280;41676;44.610;44.078;2024-01-30T03:15:26;102433.50;;;-10.48;94.03
55757;BME280;41676;44.610;44.078;2024-01-30T03:20:26;102444.72;;;-10.41;94.01
55757;BME280;41676;44.610;44.078;2024-01-30T03:25:27;102482.56;;;-10.23;94.83
55757;BME280;41676;44.610;44.078;2024-01-30T03:30:28;102424.88;;;-10.53;95.19
55757;BME280;41676;44.610;44.078;2024-01-30T03:35:29;102501.59;;;-10.07;95.37
55757;BME280;41676;44.610;44.078;2024-01-30T03:40:29;102493.94;;;-10.01;95.15
55757;BME280;41676;44.610;44.078;2024-01-30T03:45:30;102476.84;;;-9.93;95.79
55757;BME280;41676;44.610;44.078;2024-01-30T03:50:31;102494.16;;;-9.80;95.70
55757;BME280;41676;44.610;44.078;2024-01-30T03:55:31;102481.28;;;-9.78;95.73
55757;BME280;41676;44.610;44.078;2024-01-30T04:00:32;102440.06;;;-9.88;96.08
55757;BME280;41676;44.610;44.078;2024-01-30T04:05:33;102436.72;;;-9.79;95.55
55757;BME280;41676;44.610;44.078;2024-01-30T04:10:34;102493.63;;;-9.37;95.51
55757;BME280;41676;44.610;44.078;2024-01-30T04:15:35;102485.06;;;-9.36;95.92
55757;BME280;41676;44.610;44.078;2024-01-30T04:20:35;102505.66;;;-9.35;95.78
55757;BME280;41676;44.610;44.078;2024-01-30T04:25:36;102495.41;;;-9.32;95.72
55757;BME280;41676;44.610;44.078;2024-01-30T04:30:37;102504.91;;;-9.20;96.01
55757;BME280;41676;44.610;44.078;2024-01-30T04:35:38;102501.47;;;-9.24;96.02
55757;BME280;41676;44.610;44.078;2024-01-30T04:40:38;102506.72;;;-9.08;95.77
55757;BME280;41676;44.610;44.078;2024-01-30T04:45:39;102509.22;;;-9.21;95.49
55757;BME280;41676;44.610;44.078;2024-01-30T04:50:40;102499.78;;;-9.15;95.17
55757;BME280;41676;44.610;44.078;2024-01-30T04:55:41;102513.53;;;-9.16;95.31
55757;BME280;41676;44.610;44.078;2024-01-30T05:00:41;102506.69;;;-9.14;95.74
55757;BME280;41676;44.610;44.078;2024-01-30T05:05:42;102507.53;;;-9.09;95.38
55757;BME280;41676;44.610;44.078;2024-01-30T05:10:43;102496.41;;;-9.08;95.53
55757;BME280;41676;44.610;44.078;2024-01-30T05:15:43;102516.19;;;-9.01;94.90
55757;BME280;41676;44.610;44.078;2024-01-30T05:20:44;102527.34;;;-9.05;94.81
55757;BME280;41676;44.610;44.078;2024-01-30T05:25:45;102531.53;;;-9.18;94.96
55757;BME280;41676;44.610;44.078;2024-01-30T05:30:45;102534.09;;;-9.21;94.13
55757;BME280;41676;44.610;44.078;2024-01-30T05:35:46;102538.34;;;-9.26;94.39
55757;BME280;41676;44.610;44.078;2024-01-30T05:40:46;102506.56;;;-9.30;94.63
55757;BME280;41676;44.610;44.078;2024-01-30T05:45:47;102534.19;;;-9.07;94.14
55757;BME280;41676;44.610;44.078;2024-01-30T05:50:48;102537.63;;;-9.05;94.77
55757;BME280;41676;44.610;44.078;2024-01-30T05:55:49;102482.53;;;-9.30;94.52
55757;BME280;41676;44.610;44.078;2024-01-30T06:00:49;102517.09;;;-8.93;94.77
55757;BME280;41676;44.610;44.078;2024-01-30T06:05:50;102543.88;;;-8.65;94.42
55757;BME280;41676;44.610;44.078;2024-01-30T06:10:51;102527.66;;;-8.44;94.05
55757;BME280;41676;44.610;44.078;2024-01-30T06:15:52;102532.91;;;-8.19;93.74
55757;BME280;41676;44.610;44.078;2024-01-30T06:20:53;102471.81;;;-8.37;93.80
55757;BME280;41676;44.610;44.078;2024-01-30T06:25:53;102538.19;;;-7.49;93.25
55757;BME280;41676;44.610;44.078;2024-01-30T06:30:54;102543.34;;;-7.24;92.54
55757;BME280;41676;44.610;44.078;2024-01-30T06:35:55;102541.59;;;-6.98;91.37
55757;BME280;41676;44.610;44.078;2024-01-30T06:40:55;102535.59;;;-7.50;90.84
55757;BME280;41676;44.610;44.078;2024-01-30T06:45:56;102539.88;;;-7.54;91.09
55757;BME280;41676;44.610;44.078;2024-01-30T06:50:57;102515.78;;;-7.16;90.30
55757;BME280;41676;44.610;44.078;2024-01-30T06:55:58;102533.00;;;-7.00;89.12
55757;BME280;41676;44.610;44.078;2024-01-30T07:00:59;102527.78;;;-6.72;88.22
55757;BME280;41676;44.610;44.078;2024-01-30T07:06:00;102519.94;;;-6.48;87.23
55757;BME280;41676;44.610;44.078;2024-01-30T07:11:01;102523.31;;;-6.35;87.32
55757;BME280;41676;44.610;44.078;2024-01-30T07:16:02;102520.69;;;-6.21;86.22
55757;BME280;41676;44.610;44.078;2024-01-30T07:21:03;102524.91;;;-6.03;85.47
55757;BME280;41676;44.610;44.078;2024-01-30T07:26:05;102469.53;;;-5.84;84.71
55757;BME280;41676;44.610;44.078;2024-01-30T07:31:06;102496.78;;;-5.37;84.31
55757;BME280;41676;44.610;44.078;2024-01-30T07:36:07;102495.78;;;-5.22;83.93
55757;BME280;41676;44.610;44.078;2024-01-30T07:41:08;102476.84;;;-5.29;82.63
55757;BME280;41676;44.610;44.078;2024-01-30T07:46:10;102472.53;;;-5.33;81.56
55757;BME280;41676;44.610;44.078;2024-01-30T07:51:10;102492.56;;;-5.48;82.04
55757;BME280;41676;44.610;44.078;2024-01-30T07:56:11;102508.13;;;-5.50;82.68
55757;BME280;41676;44.610;44.078;2024-01-30T08:01:12;102445.22;;;-5.66;82.14
55757;BME280;41676;44.610;44.078;2024-01-30T08:06:12;102479.56;;;-5.44;81.87
55757;BME280;41676;44.610;44.078;2024-01-30T08:11:13;102482.13;;;-5.42;81.68
55757;BME280;41676;44.610;44.078;2024-01-30T08:16:14;102489.06;;;-5.44;81.07
55757;BME280;41676;44.610;44.078;2024-01-30T08:21:15;102482.19;;;-5.48;80.93
55757;BME280;41676;44.610;44.078;2024-01-30T08:26:16;102378.25;;;-6.01;79.73
55757;BME280;41676;44.610;44.078;2024-01-30T08:31:16;102466.28;;;-5.12;79.09
55757;BME280;41676;44.610;44.078;2024-01-30T08:36:17;102442.41;;;-5.38;78.94
55757;BME280;41676;44.610;44.078;2024-01-30T08:41:19;102459.38;;;-5.08;78.67
55757;BME280;41676;44.610;44.078;2024-01-30T08:46:19;102451.63;;;-5.11;78.33
55757;BME280;41676;44.610;44.078;2024-01-30T08:51:20;102444.56;;;-4.98;77.83
55757;BME280;41676;44.610;44.078;2024-01-30T08:56:21;102436.75;;;-4.97;77.51
55757;BME280;41676;44.610;44.078;2024-01-30T09:01:22;102439.94;;;-4.73;77.46
55757;BME280;41676;44.610;44.078;2024-01-30T09:06:23;102422.75;;;-4.80;76.12
55757;BME280;41676;44.610;44.078;2024-01-30T09:11:26;102435.94;;;-4.31;76.40
55757;BME280;41676;44.610;44.078;2024-01-30T09:16:27;102430.31;;;-4.62;76.71
55757;BME280;41676;44.610;44.078;2024-01-30T09:21:29;102424.88;;;-4.44;76.22
55757;BME280;41676;44.610;44.078;2024-01-30T09:26:29;102378.72;;;-4.85;75.78
55757;BME280;41676;44.610;44.078;2024-01-30T09:31:30;102411.28;;;-4.61;75.45
55757;BME280;41676;44.610;44.078;2024-01-30T09:36:31;102419.59;;;-4.38;75.34
55757;BME280;41676;44.610;44.078;2024-01-30T09:41:33;102415.34;;;-4.42;74.85
55757;BME280;41676;44.610;44.078;2024-01-30T09:46:37;102405.69;;;-4.32;74.25
55757;BME280;41676;44.610;44.078;2024-01-30T09:51:38;102400.34;;;-3.69;73.69
55757;BME280;41676;44.610;44.078;2024-01-30T09:56:39;102406.16;;;-3.53;72.64
55757;BME280;41676;44.610;44.078;2024-01-30T10:01:40;102394.56;;;-3.86;73.25
55757;BME280;41676;44.610;44.078;2024-01-30T10:06:43;102391.75;;;-3.71;73.07
55757;BME280;41676;44.610;44.078;2024-01-30T10:11:44;102386.28;;;-3.55;72.08
55757;BME280;41676;44.610;44.078;2024-01-30T10:16:46;102374.75;;;-3.40;71.42
55757;BME280;41676;44.610;44.078;2024-01-30T10:21:46;102380.25;;;-3.56;72.33
55757;BME280;41676;44.610;44.078;2024-01-30T10:26:47;102368.91;;;-3.08;71.97
55757;BME280;41676;44.610;44.078;2024-01-30T10:31:58;102315.47;;;-3.23;69.28
55757;BME280;41676;44.610;44.078;2024-01-30T10:37:10;102356.03;;;-3.14;68.36
55757;BME280;41676;44.610;44.078;2024-01-30T10:42:17;102348.47;;;-3.27;70.75
55757;BME280;41676;44.610;44.078;2024-01-30T10:47:21;102345.19;;;-3.35;70.29
55757;BME280;41676;44.610;44.078;2024-01-30T10:52:26;102339.19;;;-3.38;71.41
55757;BME280;41676;44.610;44.078;2024-01-30T10:57:27;102340.84;;;-3.34;70.68
55757;BME280;41676;44.610;44.078;2024-01-30T11:02:28;102339.34;;;-3.46;70.14
55757;BME280;41676;44.610;44.078;2024-01-30T11:07:30;102288.19;;;-3.89;70.24
55757;BME280;41676;44.610;44.078;2024-01-30T11:12:31;102331.19;;;-3.73;70.34
55757;BME280;41676;44.610;44.078;2024-01-30T11:22:50;102327.78;;;-3.78;70.17
55757;BME280;41676;44.610;44.078;2024-01-30T11:27:53;102324.78;;;-4.04;70.45
55757;BME280;41676;44.610;44.078;2024-01-30T11:33:13;102320.06;;;-3.81;69.30
55757;BME280;41676;44.610;44.078;2024-01-30T11:38:15;102308.41;;;-4.08;70.54
55757;BME280;41676;44.610;44.078;2024-01-30T11:43:17;102295.28;;;-3.99;70.20
55757;BME280;41676;44.610;44.078;2024-01-30T11:48:18;102253.34;;;-4.25;69.88
55757;BME280;41676;44.610;44.078;2024-01-30T11:53:19;102304.06;;;-4.07;70.16
55757;BME280;41676;44.610;44.078;2024-01-30T11:58:20;102297.50;;;-4.27;70.47
55757;BME280;41676;44.610;44.078;2024-01-30T12:03:20;102304.34;;;-4.23;69.90
55757;BME280;41676;44.610;44.078;2024-01-30T12:08:21;102284.81;;;-4.45;69.84
55757;BME280;41676;44.610;44.078;2024-01-30T12:13:22;102302.25;;;-4.53;69.68
55757;BME280;41676;44.610;44.078;2024-01-30T12:18:23;102316.06;;;-4.51;70.09
55757;BME280;41676;44.610;44.078;2024-01-30T12:23:24;102310.78;;;-4.47;69.52
55757;BME280;41676;44.610;44.078;2024-01-30T12:28:26;102308.97;;;-4.42;69.68
55757;BME280;41676;44.610;44.078;2024-01-30T12:33:27;102248.34;;;-4.90;68.99
55757;BME280;41676;44.610;44.078;2024-01-30T12:38:29;102309.41;;;-4.69;69.31
55757;BME280;41676;44.610;44.078;2024-01-30T12:43:29;102302.47;;;-4.70;69.13
55757;BME280;41676;44.610;44.078;2024-01-30T12:48:30;102301.44;;;-4.57;68.73
55757;BME280;41676;44.610;44.078;2024-01-30T12:53:31;102301.59;;;-4.68;68.97
55757;BME280;41676;44.610;44.078;2024-01-30T12:58:32;102309.34;;;-4.66;68.46
55757;BME280;41676;44.610;44.078;2024-01-30T13:03:33;102321.44;;;-4.65;68.44
55757;BME280;41676;44.610;44.078;2024-01-30T13:08:33;102291.31;;;-4.74;68.43
55757;BME280;41676;44.610;44.078;2024-01-30T13:13:34;102286.03;;;-4.68;68.80
55757;BME280;41676;44.610;44.078;2024-01-30T13:18:36;102288.72;;;-4.74;69.02
55757;BME280;41676;44.610;44.078;2024-01-30T13:23:36;102225.38;;;-5.18;69.04
55757;BME280;41676;44.610;44.078;2024-01-30T13:28:37;102292.28;;;-4.83;69.32
55757;BME280;41676;44.610;44.078;2024-01-30T13:33:38;102290.63;;;-4.87;69.54
55757;BME280;41676;44.610;44.078;2024-01-30T13:38:39;102258.47;;;-5.37;69.76
55757;BME280;41676;44.610;44.078;2024-01-30T13:43:40;102293.06;;;-5.42;69.71
55757;BME280;41676;44.610;44.078;2024-01-30T13:48:41;102262.25;;;-5.65;70.04
55757;BME280;41676;44.610;44.078;2024-01-30T13:53:41;102309.56;;;-5.49;69.82
55757;BME280;41676;44.610;44.078;2024-01-30T13:58:42;102308.16;;;-5.81;69.43
55757;BME280;41676;44.610;44.078;2024-01-30T14:03:43;102303.22;;;-6.03;69.83
55757;BME280;41676;44.610;44.078;2024-01-30T14:08:43;102286.94;;;-6.14;70.35
55757;BME280;41676;44.610;44.078;2024-01-30T14:13:44;102293.03;;;-6.23;70.73
55757;BME280;41676;44.610;44.078;2024-01-30T14:18:45;102291.44;;;-6.37;70.95
55757;BME280;41676;44.610;44.078;2024-01-30T14:23:46;102271.72;;;-6.51;71.14
55757;BME280;41676;44.610;44.078;2024-01-30T14:28:47;102276.13;;;-6.65;71.73
55757;BME280;41676;44.610;44.078;2024-01-30T14:33:48;102276.25;;;-6.85;72.24
55757;BME280;41676;44.610;44.078;2024-01-30T14:38:49;102226.63;;;-7.39;72.43
55757;BME280;41676;44.610;44.078;2024-01-30T14:43:49;102248.19;;;-7.43;72.65
55757;BME280;41676;44.610;44.078;2024-01-30T14:48:50;102211.31;;;-7.71;73.03
55757;BME280;41676;44.610;44.078;2024-01-30T14:53:52;102287.69;;;-7.30;73.75
55757;BME280;41676;44.610;44.078;2024-01-30T14:58:52;102298.94;;;-7.41;73.99
55757;BME280;41676;44.610;44.078;2024-01-30T15:03:53;102312.72;;;-7.45;74.06
55757;BME280;41676;44.610;44.078;2024-01-30T15:08:55;102315.31;;;-7.46;74.51
55757;BME280;41676;44.610;44.078;2024-01-30T15:13:56;102252.63;;;-7.93;75.22
55757;BME280;41676;44.610;44.078;2024-01-30T15:18:57;102303.34;;;-7.87;75.24
55757;BME280;41676;44.610;44.078;2024-01-30T15:23:57;102312.84;;;-7.97;75.79
55757;BME280;41676;44.610;44.078;2024-01-30T15:28:58;102318.00;;;-8.01;75.76
55757;BME280;41676;44.610;44.078;2024-01-30T15:33:59;102318.88;;;-8.19;76.00
55757;BME280;41676;44.610;44.078;2024-01-30T15:39:00;102326.59;;;-8.53;76.35
55757;BME280;41676;44.610;44.078;2024-01-30T15:44:01;102293.00;;;-9.01;76.86
55757;BME280;41676;44.610;44.078;2024-01-30T15:49:02;102338.53;;;-9.03;76.94
55757;BME280;41676;44.610;44.078;2024-01-30T15:54:04;102337.59;;;-9.17;77.10
55757;BME280;41676;44.610;44.078;2024-01-30T15:59:05;102348.72;;;-9.23;77.27
55757;BME280;41676;44.610;44.078;2024-01-30T16:04:06;102312.59;;;-9.47;77.37
55757;BME280;41676;44.610;44.078;2024-01-30T16:09:06;102354.69;;;-9.31;77.30
55757;BME280;41676;44.610;44.078;2024-01-30T16:14:08;102336.56;;;-9.51;77.03
55757;BME280;41676;44.610;44.078;2024-01-30T16:19:09;102290.09;;;-9.85;77.64
55757;BME280;41676;44.610;44.078;2024-01-30T16:24:09;102330.44;;;-9.75;77.38
55757;BME280;41676;44.610;44.078;2024-01-30T16:29:10;102327.72;;;-9.98;77.94
55757;BME280;41676;44.610;44.078;2024-01-30T16:34:11;102306.94;;;-10.30;78.20
55757;BME280;41676;44.610;44.078;2024-01-30T16:39:12;102291.28;;;-10.58;78.29
55757;BME280;41676;44.610;44.078;2024-01-30T16:44:13;102318.03;;;-10.34;78.67
55757;BME280;41676;44.610;44.078;2024-01-30T16:49:14;102315.50;;;-10.23;78.83
55757;BME280;41676;44.610;44.078;2024-01-30T16:54:14;102268.28;;;-10.45;78.06
55757;BME280;41676;44.610;44.078;2024-01-30T16:59:16;102300.88;;;-10.35;78.18
55757;BME280;41676;44.610;44.078;2024-01-30T17:04:18;102297.50;;;-10.32;78.85
55757;BME280;41676;44.610;44.078;2024-01-30T17:09:22;102306.03;;;-10.35;78.71
55757;BME280;41676;44.610;44.078;2024-01-30T17:14:22;102310.94;;;-10.64;78.09
55757;BME280;41676;44.610;44.078;2024-01-30T17:19:23;102297.03;;;-10.85;78.77
55757;BME280;41676;44.610;44.078;2024-01-30T17:24:24;102312.53;;;-10.74;79.03
55757;BME280;41676;44.610;44.078;2024-01-30T17:29:25;102294.66;;;-10.65;79.67
55757;BME280;41676;44.610;44.078;2024-01-30T17:34:26;102243.09;;;-10.86;79.48
55757;BME280;41676;44.610;44.078;2024-01-30T17:39:27;102300.63;;;-10.66;78.78
55757;BME280;41676;44.610;44.078;2024-01-30T17:44:28;102224.63;;;-11.34;78.58
55757;BME280;41676;44.610;44.078;2024-01-30T17:49:29;102250.25;;;-11.37;78.84
55757;BME280;41676;44.610;44.078;2024-01-30T17:54:30;102257.81;;;-11.51;79.45
55757;BME280;41676;44.610;44.078;2024-01-30T17:59:31;102242.16;;;-11.70;79.27
55757;BME280;41676;44.610;44.078;2024-01-30T18:04:31;102271.41;;;-11.55;79.73
55757;BME280;41676;44.610;44.078;2024-01-30T18:09:32;102285.06;;;-11.59;79.40
55757;BME280;41676;44.610;44.078;2024-01-30T18:14:33;102264.50;;;-11.62;78.95
55757;BME280;41676;44.610;44.078;2024-01-30T18:19:34;102268.53;;;-11.81;78.78
55757;BME280;41676;44.610;44.078;2024-01-30T18:24:35;102251.31;;;-11.92;79.03
55757;BME280;41676;44.610;44.078;2024-01-30T18:29:36;102256.66;;;-11.74;79.73
55757;BME280;41676;44.610;44.078;2024-01-30T18:34:37;102218.78;;;-11.98;79.48
55757;BME280;41676;44.610;44.078;2024-01-30T18:39:37;102247.94;;;-11.90;78.76
55757;BME280;41676;44.610;44.078;2024-01-30T18:44:41;102233.81;;;-12.21;78.55
55757;BME280;41676;44.610;44.078;2024-01-30T18:49:42;102251.78;;;-12.18;78.66
55757;BME280;41676;44.610;44.078;2024-01-30T18:54:44;102240.59;;;-12.26;79.11
55757;BME280;41676;44.610;44.078;2024-01-30T18:59:45;102236.25;;;-12.30;78.97
55757;BME280;41676;44.610;44.078;2024-01-30T19:04:46;102227.03;;;-12.18;79.29
55757;BME280;41676;44.610;44.078;2024-01-30T19:09:50;102223.66;;;-12.15;79.61
55757;BME280;41676;44.610;44.078;2024-01-30T19:14:52;102215.75;;;-12.30;78.69
55757;BME280;41676;44.610;44.078;2024-01-30T19:19:53;102236.25;;;-12.30;78.59
55757;BME280;41676;44.610;44.078;2024-01-30T19:24:54;102195.72;;;-12.57;78.69
55757;BME280;41676;44.610;44.078;2024-01-30T19:29:55;102232.78;;;-12.34;78.30
55757;BME280;41676;44.610;44.078;2024-01-30T19:34:55;102217.28;;;-12.42;78.72
55757;BME280;41676;44.610;44.078;2024-01-30T19:39:56;102208.75;;;-12.42;78.80
55757;BME280;41676;44.610;44.078;2024-01-30T19:44:57;102199.09;;;-12.60;78.62
55757;BME280;41676;44.610;44.078;2024-01-30T19:49:58;102205.06;;;-12.61;78.63
55757;BME280;41676;44.610;44.078;2024-01-30T19:54:58;102169.75;;;-12.82;78.97
55757;BME280;41676;44.610;44.078;2024-01-30T19:59:59;102178.63;;;-12.60;78.87
55757;BME280;41676;44.610;44.078;2024-01-30T20:05:01;102177.75;;;-12.60;78.72
55757;BME280;41676;44.610;44.078;2024-01-30T20:10:02;102153.91;;;-12.58;78.96
55757;BME280;41676;44.610;44.078;2024-01-30T20:15:03;102150.53;;;-12.55;78.95
55757;BME280;41676;44.610;44.078;2024-01-30T20:20:08;102159.84;;;-12.60;78.61
55757;BME280;41676;44.610;44.078;2024-01-30T20:25:10;102150.53;;;-12.55;78.66
55757;BME280;41676;44.610;44.078;2024-01-30T20:30:13;102133.47;;;-12.55;78.94
55757;BME280;41676;44.610;44.078;2024-01-30T20:35:14;102145.72;;;-12.34;78.50
55757;BME280;41676;44.610;44.078;2024-01-30T20:40:14;102153.59;;;-12.19;78.39
55757;BME280;41676;44.610;44.078;2024-01-30T20:45:16;102156.28;;;-12.11;77.97
55757;BME280;41676;44.610;44.078;2024-01-30T20:50:17;102156.31;;;-12.08;77.60
55757;BME280;41676;44.610;44.078;2024-01-30T20:55:18;102158.78;;;-12.14;77.50
55757;BME280;41676;44.610;44.078;2024-01-30T21:00:19;102151.81;;;-12.24;77.24
55757;BME280;41676;44.610;44.078;2024-01-30T21:05:19;102158.69;;;-12.23;77.35
55757;BME280;41676;44.610;44.078;2024-01-30T21:10:22;102160.31;;;-12.27;77.78
55757;BME280;41676;44.610;44.078;2024-01-30T21:15:23;102156.19;;;-12.17;77.92
55757;BME280;41676;44.610;44.078;2024-01-30T21:20:24;102126.59;;;-12.59;77.50
55757;BME280;41676;44.610;44.078;2024-01-30T21:25:25;102173.81;;;-12.38;77.58
55757;BME280;41676;44.610;44.078;2024-01-30T21:30:25;102182.41;;;-12.33;77.86
55757;BME280;41676;44.610;44.078;2024-01-30T21:35:28;102167.91;;;-12.34;77.22
55757;BME280;41676;44.610;44.078;2024-01-30T21:40:28;102132.19;;;-12.84;76.28
55757;BME280;41676;44.610;44.078;2024-01-30T21:45:29;102096.00;;;-13.09;77.06
55757;BME280;41676;44.610;44.078;2024-01-30T21:50:30;102153.88;;;-12.61;77.29
55757;BME280;41676;44.610;44.078;2024-01-30T21:55:31;102152.97;;;-12.65;77.32
55757;BME280;41676;44.610;44.078;2024-01-30T22:00:31;102111.38;;;-13.04;76.90
55757;BME280;41676;44.610;44.078;2024-01-30T22:05:32;102105.38;;;-13.08;77.08
55757;BME280;41676;44.610;44.078;2024-01-30T22:10:33;102153.38;;;-12.93;77.54
55757;BME280;41676;44.610;44.078;2024-01-30T22:15:33;102153.25;;;-13.01;77.73
55757;BME280;41676;44.610;44.078;2024-01-30T22:20:37;102144.69;;;-13.01;77.63
55757;BME280;41676;44.610;44.078;2024-01-30T22:25:37;102123.22;;;-13.13;77.80
55757;BME280;41676;44.610;44.078;2024-01-30T22:30:38;102152.47;;;-12.95;77.85
55757;BME280;41676;44.610;44.078;2024-01-30T22:35:39;102097.25;;;-13.37;76.97
55757;BME280;41676;44.610;44.078;2024-01-30T22:40:40;102118.78;;;-13.23;77.71
55757;BME280;41676;44.610;44.078;2024-01-30T22:45:40;102151.47;;;-13.05;77.85
55757;BME280;41676;44.610;44.078;2024-01-30T22:50:41;102154.00;;;-13.06;78.02
55757;BME280;41676;44.610;44.078;2024-01-30T22:55:42;102153.81;;;-13.19;77.99
55757;BME280;41676;44.610;44.078;2024-01-30T23:00:43;102146.06;;;-13.25;77.74
55757;BME280;41676;44.610;44.078;2024-01-30T23:05:43;102145.94;;;-13.31;77.72
55757;BME280;41676;44.610;44.078;2024-01-30T23:10:44;102145.06;;;-13.31;78.05
55757;BME280;41676;44.610;44.078;2024-01-30T23:15:45;102099.44;;;-13.60;78.02
55757;BME280;41676;44.610;44.078;2024-01-30T23:20:46;102144.31;;;-13.27;78.10
55757;BME280;41676;44.610;44.078;2024-01-30T23:25:46;102151.22;;;-13.20;78.22
55757;BME280;41676;44.610;44.078;2024-01-30T23:30:47;102161.44;;;-13.20;78.23
55757;BME280;41676;44.610;44.078;2024-01-30T23:35:48;102105.56;;;-13.49;78.20
55757;BME280;41676;44.610;44.078;2024-01-30T23:40:49;102151.25;;;-13.17;78.43
55757;BME280;41676;44.610;44.078;2024-01-30T23:45:50;102145.31;;;-13.16;78.53
55757;BME280;41676;44.610;44.078;2024-01-30T23:50:50;102151.38;;;-13.11;78.56
55757;BME280;41676;44.610;44.078;2024-01-30T23:55:51;102102.56;;;-13.26;78.69
